Time;durP1;ratioP1;P1;durP2;ratioP2;P2;SDS_P1;SDS_P2;PMS_P1;PMS_P2;Temp;Humidity;BMP_temperature;BMP_pressure;BME280_temperature;BME280_humidity;BME280_pressure;Samples;Min_cycle;Max_cycle;Signal;HPM_P1;HPM_P2
2023/01/29 00:00:18;;;;;;;14.02;2.58;;;;;;;12.84;63.99;101240.59;4995327;28;20113;-59
2023/01/29 00:02:44;;;;;;;6.32;2.08;;;;;;;12.76;64.89;101249.69;5010222;28;20049;-59
2023/01/29 00:05:10;;;;;;;14.18;2.80;;;;;;;12.54;65.96;101246.41;5014881;28;20037;-59
2023/01/29 00:07:37;;;;;;;12.52;2.35;;;;;;;12.50;66.83;101250.56;5014990;28;20037;-59
2023/01/29 00:10:03;;;;;;;13.23;3.08;;;;;;;12.42;66.95;101256.13;5013344;28;20045;-59
2023/01/29 00:12:29;;;;;;;9.90;2.65;;;;;;;12.48;67.70;101257.16;5014153;28;20109;-58
2023/01/29 00:14:55;;;;;;;23.17;4.03;;;;;;;12.45;68.13;101249.53;5012369;28;20034;-59
2023/01/29 00:17:22;;;;;;;12.93;3.20;;;;;;;12.36;67.43;101239.00;5014427;28;20018;-57
2023/01/29 00:19:48;;;;;;;9.73;2.85;;;;;;;12.21;68.58;101235.69;5013247;28;20052;-58
2023/01/29 00:22:14;;;;;;;25.05;4.55;;;;;;;12.15;69.19;101242.72;5012019;28;20026;-58
2023/01/29 00:24:43;;;;;;;13.45;2.70;;;;;;;12.30;68.15;101239.00;4995201;28;20053;-57
2023/01/29 00:27:09;;;;;;;15.25;3.05;;;;;;;12.17;68.87;101234.50;4993160;28;20026;-58
2023/01/29 00:29:36;;;;;;;19.40;3.10;;;;;;;12.09;69.01;101232.81;5003902;28;20523;-58
2023/01/29 00:32:02;;;;;;;11.48;3.00;;;;;;;12.15;68.67;101236.53;5013925;28;20029;-58
2023/01/29 00:34:28;;;;;;;8.65;2.70;;;;;;;12.22;68.43;101228.50;5012236;28;20030;-58
2023/01/29 00:37:03;;;;;;;15.55;2.75;;;;;;;12.22;68.46;101229.31;5013800;28;20034;-58
2023/01/29 00:39:37;;;;;;;12.02;2.80;;;;;;;12.15;69.12;101221.25;5012560;28;20076;-58
2023/01/29 00:44:59;;;;;;;13.30;2.90;;;;;;;11.84;70.02;101229.94;5005269;28;20505;-59
2023/01/29 00:47:34;;;;;;;17.50;3.20;;;;;;;11.79;70.31;101229.69;5005843;28;20034;-58
2023/01/29 00:50:03;;;;;;;16.23;3.22;;;;;;;11.76;70.65;101221.22;5010327;28;20416;-59
2023/01/29 00:52:29;;;;;;;10.70;2.83;;;;;;;11.69;71.09;101218.53;5013579;28;20093;-58
2023/01/29 00:54:58;;;;;;;12.43;2.83;;;;;;;11.63;71.80;101216.66;5013007;28;20029;-59
2023/01/29 00:57:26;;;;;;;15.52;3.58;;;;;;;11.58;72.35;101213.75;4995720;28;20384;-58
2023/01/29 00:59:53;;;;;;;18.48;3.70;;;;;;;11.48;72.85;101224.88;5010701;28;20408;-58
2023/01/29 01:05:09;;;;;;;15.77;3.80;;;;;;;11.43;73.44;101230.00;5010615;28;20103;-58
2023/01/29 01:07:35;;;;;;;11.02;3.03;;;;;;;11.40;73.60;101224.25;5004771;28;20056;-58
2023/01/29 01:10:19;;;;;;;27.70;4.15;;;;;;;11.50;72.98;101240.78;5013659;28;20054;-58
2023/01/29 01:12:47;;;;;;;9.82;3.58;;;;;;;11.21;74.12;101256.09;5013258;28;20038;-58
2023/01/29 01:15:13;;;;;;;16.27;3.97;;;;;;;11.14;73.89;101259.78;5013450;28;20168;-58
2023/01/29 01:17:40;;;;;;;16.88;3.53;;;;;;;11.14;74.01;101263.31;5013366;28;20500;-58
2023/01/29 01:20:07;;;;;;;18.65;3.42;;;;;;;11.21;73.67;101264.16;5013537;28;20041;-58
2023/01/29 01:22:34;;;;;;;10.55;3.40;;;;;;;11.16;73.60;101274.66;4995892;28;20022;-58
2023/01/29 01:25:00;;;;;;;23.38;4.13;;;;;;;11.05;74.07;101272.53;5013234;28;20026;-58
2023/01/29 01:27:27;;;;;;;18.83;4.60;;;;;;;10.78;74.95;101272.41;5013209;28;20037;-57
2023/01/29 01:29:53;;;;;;;12.38;3.20;;;;;;;10.96;74.86;101263.84;5007040;28;20686;-57
2023/01/29 01:32:19;;;;;;;14.10;3.70;;;;;;;11.08;74.11;101243.50;4997627;28;20044;-57
2023/01/29 01:34:45;;;;;;;18.00;3.45;;;;;;;10.94;74.50;101252.50;5012474;28;20022;-56
2023/01/29 01:37:12;;;;;;;11.40;3.47;;;;;;;10.98;73.92;101255.59;5001947;28;20030;-57
2023/01/29 01:39:38;;;;;;;11.60;2.88;;;;;;;10.93;74.28;101253.50;5012606;28;20046;-58
2023/01/29 01:42:10;;;;;;;10.40;3.17;;;;;;;11.01;74.18;101250.69;5012166;28;20026;-58
2023/01/29 01:45:03;;;;;;;10.98;3.28;;;;;;;11.03;74.20;101248.63;5012378;28;20041;-57
2023/01/29 01:47:43;;;;;;;12.77;3.30;;;;;;;10.97;73.84;101253.94;5009163;28;20049;-57
2023/01/29 01:50:16;;;;;;;15.82;3.40;;;;;;;10.65;74.77;101250.88;5007025;28;20030;-58
2023/01/29 01:52:50;;;;;;;15.77;3.55;;;;;;;10.62;74.93;101251.28;5007913;28;20029;-59
2023/01/29 01:55:20;;;;;;;9.95;2.63;;;;;;;10.70;74.42;101235.06;5004618;28;20044;-56
2023/01/29 01:57:52;;;;;;;24.75;4.55;;;;;;;11.00;73.20;101238.31;5010397;28;20456;-54
2023/01/29 02:00:21;;;;;;;15.23;3.55;;;;;;;10.71;74.02;101231.34;5011407;28;20069;-57
2023/01/29 02:11:30;;;;;;;17.77;3.63;;;;;;;10.75;73.89;101235.28;5053544;23;20582;-57
2023/01/29 02:13:56;;;;;;;11.35;3.45;;;;;;;10.35;75.51;101238.75;5050982;28;20037;-57
2023/01/29 02:16:23;;;;;;;15.63;3.75;;;;;;;10.34;75.45;101224.53;5052048;28;20032;-57
2023/01/29 02:18:49;;;;;;;9.55;3.33;;;;;;;10.38;75.11;101238.34;5051924;28;20040;-57
2023/01/29 02:21:24;;;;;;;16.48;3.78;;;;;;;10.23;75.95;101243.78;5052179;28;20448;-57
2023/01/29 02:23:52;;;;;;;17.08;3.72;;;;;;;10.36;75.34;101243.06;5051855;28;20198;-56
2023/01/29 02:26:39;;;;;;;13.75;4.07;;;;;;;10.53;74.66;101225.69;5051860;28;20078;-56
2023/01/29 02:29:35;;;;;;;16.70;3.60;;;;;;;10.46;74.75;101224.81;5041735;28;20433;-57
2023/01/29 02:32:22;;;;;;;19.00;4.30;;;;;;;10.27;75.74;101224.50;4980639;28;20038;-56
2023/01/29 02:38:11;;;;;;;13.48;4.18;;;;;;;10.27;75.83;101210.25;5051891;28;20099;-55
2023/01/29 02:40:59;;;;;;;16.95;4.63;;;;;;;10.11;76.36;101207.88;5041209;28;20052;-57
2023/01/29 02:43:47;;;;;;;18.30;4.07;;;;;;;10.21;76.15;101203.81;5051587;28;20029;-57
2023/01/29 02:46:22;;;;;;;15.38;3.85;;;;;;;10.08;76.46;101203.72;5051597;28;20497;-58
2023/01/29 02:49:16;;;;;;;14.13;3.72;;;;;;;10.14;75.94;101216.31;5034328;28;20171;-58
2023/01/29 02:52:10;;;;;;;12.63;4.30;;;;;;;10.09;76.10;101226.75;5002315;28;20544;-58
2023/01/29 02:54:43;;;;;;;15.80;5.13;;;;;;;10.18;75.09;101230.16;5034160;28;20064;-57
2023/01/29 02:57:23;;;;;;;13.70;5.68;;;;;;;10.47;73.76;101239.84;5031692;28;20021;-57
2023/01/29 03:00:01;;;;;;;15.63;5.05;;;;;;;10.24;74.25;101248.13;5011792;28;20088;-57
2023/01/29 03:02:42;;;;;;;13.23;4.28;;;;;;;10.48;72.90;101249.53;5015838;28;20084;-58
2023/01/29 03:05:17;;;;;;;14.55;4.45;;;;;;;10.14;73.56;101248.41;5030739;28;20083;-58
2023/01/29 03:07:48;;;;;;;;;;;;;;;10.19;73.26;101251.34;5013708;28;20034;-58
2023/01/29 03:10:20;;;;;;;15.77;4.60;;;;;;;10.08;73.50;101243.84;5011504;28;19921;-58
2023/01/29 03:12:55;;;;;;;14.63;3.90;;;;;;;10.21;72.08;101248.47;5011372;28;20044;-58
2023/01/29 03:15:30;;;;;;;10.20;3.10;;;;;;;10.08;72.22;101238.50;5011265;28;20392;-59
2023/01/29 03:17:56;;;;;;;15.47;3.20;;;;;;;10.01;72.37;101240.28;5022330;28;20129;-58
2023/01/29 03:20:30;;;;;;;14.60;3.15;;;;;;;10.06;71.85;101243.22;5030756;28;20351;-55
2023/01/29 03:23:02;;;;;;;12.07;3.07;;;;;;;9.87;72.23;101236.66;5030775;28;20025;-56
2023/01/29 03:34:04;;;;;;;16.75;3.30;;;;;;;9.70;72.83;101248.63;5034864;28;20128;-59
2023/01/29 03:36:44;;;;;;;16.38;3.80;;;;;;;9.88;72.07;101246.31;5034758;28;20060;-59
2023/01/29 03:39:12;;;;;;;13.10;3.25;;;;;;;9.70;72.74;101236.09;5034362;28;20037;-59
2023/01/29 03:42:02;;;;;;;9.60;3.08;;;;;;;9.70;72.68;101237.94;5034820;28;20063;-59
2023/01/29 03:44:46;;;;;;;12.27;4.38;;;;;;;9.57;72.48;101241.31;5021027;28;20017;-59
2023/01/29 03:47:18;;;;;;;13.10;3.75;;;;;;;9.47;73.24;101244.28;5034791;28;20072;-59
2023/01/29 03:50:02;;;;;;;11.35;3.20;;;;;;;9.43;72.90;101242.97;5034472;28;20669;-59
2023/01/29 03:52:51;;;;;;;12.30;4.63;;;;;;;9.32;72.90;101240.81;5034234;28;20032;-59
2023/01/29 03:55:30;;;;;;;17.63;5.13;;;;;;;9.20;73.07;101232.44;5023247;28;20049;-56
2023/01/29 03:58:13;;;;;;;13.15;4.45;;;;;;;9.13;73.54;101228.88;5034117;28;20040;-57
2023/01/29 04:00:51;;;;;;;13.43;4.22;;;;;;;9.10;73.87;101234.59;5034117;28;20033;-58
2023/01/29 04:03:23;;;;;;;12.07;4.00;;;;;;;9.06;73.72;101240.50;5034357;28;20147;-58
2023/01/29 04:06:08;;;;;;;13.32;4.30;;;;;;;9.11;73.52;101236.25;5034038;28;20123;-58
2023/01/29 04:08:47;;;;;;;12.02;4.45;;;;;;;9.04;73.05;101240.66;5034058;28;20033;-57
2023/01/29 04:11:17;;;;;;;7.25;3.80;;;;;;;8.98;73.34;101247.59;5033571;28;20049;-57
2023/01/29 04:13:45;;;;;;;13.77;4.45;;;;;;;9.05;72.91;101257.53;5033954;28;20025;-58
2023/01/29 04:16:21;;;;;;;15.13;4.50;;;;;;;8.93;73.11;101251.81;5034357;28;20022;-58
2023/01/29 04:18:48;;;;;;;13.23;4.85;;;;;;;8.94;73.60;101249.00;5033829;28;20041;-57
2023/01/29 04:21:16;;;;;;;10.85;4.25;;;;;;;9.04;73.49;101245.19;5034079;28;20108;-57
2023/01/29 04:23:42;;;;;;;11.95;4.63;;;;;;;8.82;74.01;101241.59;5033915;28;20030;-57
2023/01/29 04:26:40;;;;;;;12.13;4.80;;;;;;;8.78;74.27;101224.34;5034018;28;20045;-57
2023/01/29 04:29:16;;;;;;;10.93;4.22;;;;;;;8.67;74.30;101230.97;5017810;28;20495;-57
2023/01/29 04:32:29;;;;;;;15.43;3.63;;;;;;;8.63;74.60;101225.16;5033896;28;20068;-58
2023/01/29 04:35:10;;;;;;;17.13;5.75;;;;;;;8.61;74.57;101221.03;4989293;28;20077;-58
2023/01/29 04:38:07;;;;;;;13.60;4.97;;;;;;;8.54;74.87;101217.41;5032858;28;20030;-58
2023/01/29 04:40:33;;;;;;;12.05;4.38;;;;;;;8.51;74.65;101223.13;5033355;28;20036;-58
2023/01/29 04:43:14;;;;;;;10.00;4.20;;;;;;;8.45;74.82;101212.16;5029549;28;20029;-58
2023/01/29 04:46:04;;;;;;;11.75;4.65;;;;;;;8.44;74.86;101207.84;5033266;28;20464;-58
2023/01/29 04:48:56;;;;;;;13.82;5.88;;;;;;;8.40;74.98;101205.72;5033773;28;20033;-59
2023/01/29 04:51:29;;;;;;;13.93;4.93;;;;;;;8.37;74.90;101212.25;5033238;28;20487;-59
2023/01/29 04:54:14;;;;;;;14.48;5.55;;;;;;;8.32;75.22;101208.44;5032954;28;20025;-57
2023/01/29 04:57:24;;;;;;;13.02;6.07;;;;;;;8.28;75.54;101217.81;5032975;28;20022;-57
2023/01/29 05:00:32;;;;;;;21.90;7.05;;;;;;;8.23;75.61;101223.69;5032226;28;20047;-59
2023/01/29 05:03:00;;;;;;;14.68;6.55;;;;;;;8.29;75.17;101219.47;5029778;28;20068;-57
2023/01/29 05:05:28;;;;;;;12.05;5.55;;;;;;;8.19;75.45;101222.41;5035084;23;20465;-57
2023/01/29 05:07:56;;;;;;;14.98;5.13;;;;;;;8.19;75.65;101223.22;5030234;28;20037;-58
2023/01/29 05:10:24;;;;;;;10.63;4.93;;;;;;;8.14;75.89;101212.25;5022041;28;20025;-57
2023/01/29 05:12:57;;;;;;;8.73;4.80;;;;;;;8.12;75.72;101208.13;5033202;28;20029;-57
2023/01/29 05:15:29;;;;;;;10.07;4.55;;;;;;;8.11;75.49;101203.81;5023902;28;20022;-57
2023/01/29 05:18:00;;;;;;;15.05;5.00;;;;;;;8.02;75.47;101200.38;5027549;28;20029;-57
2023/01/29 05:20:28;;;;;;;15.02;4.93;;;;;;;8.07;75.31;101198.00;5030689;28;20057;-57
2023/01/29 05:22:54;;;;;;;13.73;4.82;;;;;;;7.96;75.62;101203.78;5031966;28;20571;-57
2023/01/29 05:25:27;;;;;;;11.55;4.45;;;;;;;7.86;75.82;101203.19;5032944;28;20037;-57
2023/01/29 05:28:03;;;;;;;12.60;4.60;;;;;;;7.85;75.94;101207.69;5032976;28;20040;-57
2023/01/29 05:30:30;;;;;;;13.82;5.38;;;;;;;7.84;76.11;101207.88;5032722;28;20029;-57
2023/01/29 05:32:57;;;;;;;24.85;5.70;;;;;;;7.83;76.41;101200.91;5033041;28;20029;-57
2023/01/29 05:35:23;;;;;;;17.05;5.30;;;;;;;7.83;76.35;101203.56;5032605;28;20071;-57
2023/01/29 05:37:49;;;;;;;11.05;4.35;;;;;;;7.77;76.34;101205.06;5032935;28;20040;-57
2023/01/29 05:40:15;;;;;;;17.92;5.78;;;;;;;7.78;76.25;101197.94;5032043;28;20022;-57
2023/01/29 05:42:42;;;;;;;18.65;5.75;;;;;;;7.78;76.82;101195.28;5013097;28;20103;-57
2023/01/29 05:45:09;;;;;;;18.23;5.30;;;;;;;7.78;76.74;101192.63;5014253;28;20026;-58
2023/01/29 05:47:36;;;;;;;17.27;5.72;;;;;;;7.73;77.79;101192.31;5016815;28;20033;-57
2023/01/29 05:50:02;;;;;;;21.83;5.72;;;;;;;7.81;77.43;101192.25;5029102;28;20033;-58
2023/01/29 05:52:28;;;;;;;19.98;5.78;;;;;;;7.85;78.09;101181.03;5032098;28;20109;-57
2023/01/29 05:54:54;;;;;;;18.13;4.93;;;;;;;8.12;79.32;101187.63;5032154;28;20586;-57
2023/01/29 05:57:21;;;;;;;16.30;4.45;;;;;;;8.21;80.48;101181.19;5032468;28;20032;-57
2023/01/29 05:59:47;;;;;;;17.48;4.70;;;;;;;8.21;80.40;101175.03;5032103;28;20029;-57
2023/01/29 06:02:13;;;;;;;20.77;4.63;;;;;;;8.12;81.04;101179.63;5020928;28;20125;-57
2023/01/29 06:04:39;;;;;;;19.15;3.95;;;;;;;8.18;81.22;101178.09;5012417;28;20049;-57
2023/01/29 06:07:06;;;;;;;23.73;4.68;;;;;;;8.25;80.78;101178.19;5026756;28;20463;-56
2023/01/29 06:09:32;;;;;;;15.77;4.35;;;;;;;8.28;81.29;101180.50;5032012;28;20033;-57
2023/01/29 06:11:58;;;;;;;14.65;4.32;;;;;;;8.19;81.30;101188.56;5031782;28;20025;-57
2023/01/29 06:14:24;;;;;;;14.20;4.05;;;;;;;8.25;81.53;101180.84;5031856;28;20033;-57
2023/01/29 06:16:51;;;;;;;19.48;5.32;;;;;;;8.42;80.69;101185.03;5031666;28;20095;-57
2023/01/29 06:19:17;;;;;;;16.52;4.07;;;;;;;8.63;80.46;101189.63;5031714;28;20440;-57
2023/01/29 06:21:43;;;;;;;14.15;4.00;;;;;;;8.36;81.32;101185.75;5031290;28;20104;-57
2023/01/29 06:24:10;;;;;;;13.45;3.72;;;;;;;8.36;81.59;101196.44;5031421;28;20026;-57
2023/01/29 06:26:37;;;;;;;12.90;4.50;;;;;;;8.42;81.89;101188.50;5020666;28;20032;-57
2023/01/29 06:29:03;;;;;;;22.20;4.75;;;;;;;8.28;82.10;101191.16;5030911;28;20037;-57
2023/01/29 06:31:30;;;;;;;14.73;4.57;;;;;;;8.38;82.09;101191.72;5030629;28;20035;-57
2023/01/29 06:33:57;;;;;;;13.82;4.10;;;;;;;8.42;81.49;101177.84;5031313;28;20052;-57
2023/01/29 06:36:23;;;;;;;15.10;4.25;;;;;;;8.41;81.75;101191.38;5014075;28;20072;-57
2023/01/29 06:38:49;;;;;;;17.25;3.83;;;;;;;8.37;82.20;101185.56;5020598;28;20025;-57
2023/01/29 06:41:18;;;;;;;17.88;3.92;;;;;;;8.53;81.56;101181.06;5030284;28;20475;-57
2023/01/29 06:43:45;;;;;;;17.67;3.85;;;;;;;8.60;81.23;101180.13;5029715;28;20476;-57
2023/01/29 06:46:11;;;;;;;9.25;3.38;;;;;;;8.46;81.99;101162.31;5025989;28;20032;-57
2023/01/29 06:48:37;;;;;;;10.63;3.45;;;;;;;8.45;81.92;101168.66;5030007;28;20033;-57
2023/01/29 06:51:05;;;;;;;15.13;3.65;;;;;;;8.40;81.88;101169.22;5027899;28;20201;-57
2023/01/29 06:53:33;;;;;;;13.20;4.30;;;;;;;8.53;81.59;101165.88;5030286;28;20021;-57
2023/01/29 06:55:59;;;;;;;11.73;3.92;;;;;;;8.47;81.93;101166.63;5031152;28;20069;-57
2023/01/29 06:58:26;;;;;;;17.10;4.13;;;;;;;8.53;81.44;101168.56;5019378;28;20715;-57
2023/01/29 07:00:52;;;;;;;12.90;4.70;;;;;;;8.63;81.24;101171.78;5021485;28;20383;-57
2023/01/29 07:03:18;;;;;;;17.35;4.55;;;;;;;8.86;80.79;101171.66;5035371;28;20025;-57
2023/01/29 07:05:52;;;;;;;17.80;4.63;;;;;;;8.83;80.75;101172.03;5035052;28;20577;-57
2023/01/29 07:08:21;;;;;;;13.32;4.65;;;;;;;8.72;81.15;101170.69;5035034;28;20392;-57
2023/01/29 07:10:49;;;;;;;22.75;5.68;;;;;;;8.67;81.28;101153.56;5035296;28;20032;-57
2023/01/29 07:13:15;;;;;;;16.05;5.18;;;;;;;8.58;81.62;101162.66;5035293;28;20082;-57
2023/01/29 07:15:43;;;;;;;17.33;6.10;;;;;;;8.75;80.77;101157.97;5027034;28;20383;-57
2023/01/29 07:18:12;;;;;;;16.88;4.30;;;;;;;8.61;81.04;101155.13;5032777;28;20087;-57
2023/01/29 07:20:40;;;;;;;19.23;4.72;;;;;;;8.56;81.02;101154.84;5034989;28;20037;-57
2023/01/29 07:23:11;;;;;;;18.65;5.15;;;;;;;8.64;80.54;101146.75;5029362;28;20494;-57
2023/01/29 07:25:37;;;;;;;15.48;5.07;;;;;;;8.57;80.75;101153.03;5033634;28;20557;-57
2023/01/29 07:28:04;;;;;;;16.38;4.35;;;;;;;8.59;80.55;101145.66;5034898;28;20140;-57
2023/01/29 07:30:30;;;;;;;17.75;5.13;;;;;;;8.51;80.79;101138.56;5031305;28;20431;-57
2023/01/29 07:33:02;;;;;;;20.45;8.02;;;;;;;8.57;80.56;101142.34;5014737;28;20111;-57
2023/01/29 07:35:28;;;;;;;18.60;9.77;;;;;;;8.53;80.39;101131.19;5027566;28;20037;-57
2023/01/29 07:37:54;;;;;;;25.50;11.10;;;;;;;8.51;80.52;101140.41;5030959;28;20038;-57
2023/01/29 07:40:20;;;;;;;26.85;12.45;;;;;;;8.50;80.44;101126.25;5014698;28;20053;-57
2023/01/29 07:42:46;;;;;;;21.70;11.32;;;;;;;8.52;80.44;101126.06;5018970;28;20403;-57
2023/01/29 07:45:13;;;;;;;28.80;13.55;;;;;;;8.51;80.27;101114.56;5034087;28;20033;-57
2023/01/29 07:47:39;;;;;;;22.92;10.15;;;;;;;8.61;80.02;101122.28;5034472;28;20102;-57
2023/01/29 07:50:05;;;;;;;18.65;8.55;;;;;;;8.63;79.93;101121.06;5034632;28;20033;-57
2023/01/29 07:52:33;;;;;;;21.70;7.55;;;;;;;8.63;79.97;101118.41;5034233;28;20087;-57
2023/01/29 07:54:59;;;;;;;17.00;6.22;;;;;;;8.62;80.12;101119.44;5034380;28;20499;-57
2023/01/29 07:57:26;;;;;;;15.85;7.38;;;;;;;8.87;79.98;101119.09;5034218;28;20103;-57
2023/01/29 07:59:52;;;;;;;18.85;6.40;;;;;;;8.83;79.64;101115.13;5034340;28;20072;-57
2023/01/29 08:02:18;;;;;;;15.00;5.72;;;;;;;8.85;80.03;101105.94;5034320;28;20029;-57
2023/01/29 08:04:44;;;;;;;18.42;4.72;;;;;;;8.93;80.62;101108.47;5034036;28;20033;-57
2023/01/29 08:07:10;;;;;;;23.08;5.45;;;;;;;8.89;81.34;101103.75;5034152;28;20595;-57
2023/01/29 08:09:37;;;;;;;15.40;5.30;;;;;;;8.94;81.43;101106.66;5034120;28;20125;-57
2023/01/29 08:12:03;;;;;;;23.10;5.40;;;;;;;8.91;81.75;101107.84;5032701;28;20513;-57
2023/01/29 08:14:29;;;;;;;16.00;4.70;;;;;;;8.93;81.69;101113.00;5033353;28;20032;-57
2023/01/29 08:16:56;;;;;;;18.10;4.68;;;;;;;9.01;81.45;101109.41;5033913;28;20075;-57
2023/01/29 08:19:22;;;;;;;17.35;4.93;;;;;;;9.06;81.53;101099.81;5029203;28;20018;-57
2023/01/29 08:21:48;;;;;;;14.55;4.43;;;;;;;9.15;81.35;101089.81;5029318;28;20113;-57
2023/01/29 08:24:14;;;;;;;18.45;5.43;;;;;;;9.28;80.94;101091.81;5033779;28;20043;-57
2023/01/29 08:26:40;;;;;;;9.68;4.00;;;;;;;9.33;80.99;101082.19;5033486;28;20021;-57
2023/01/29 08:29:07;;;;;;;9.07;3.75;;;;;;;9.46;79.26;101076.97;5031160;28;20037;-57
2023/01/29 08:31:34;;;;;;;11.73;3.80;;;;;;;9.45;78.97;101077.16;5031985;28;20083;-57
2023/01/29 08:34:00;;;;;;;15.35;3.70;;;;;;;9.39;78.59;101083.28;5032537;28;20064;-57
2023/01/29 08:36:26;;;;;;;10.07;3.25;;;;;;;9.47;77.33;101075.94;5031320;28;20057;-57
2023/01/29 08:38:52;;;;;;;12.88;2.83;;;;;;;9.46;76.87;101084.97;5031244;28;20535;-57
2023/01/29 08:41:18;;;;;;;8.38;2.95;;;;;;;9.25;77.34;101087.66;5033093;28;20125;-57
2023/01/29 08:43:45;;;;;;;8.60;2.50;;;;;;;9.24;76.59;101081.50;5033347;28;20036;-57
2023/01/29 08:46:12;;;;;;;7.10;2.33;;;;;;;9.29;76.55;101083.59;5033545;28;20057;-57
2023/01/29 08:48:38;;;;;;;6.35;2.42;;;;;;;9.25;75.95;101072.47;5033023;28;20483;-57
2023/01/29 08:51:04;;;;;;;8.88;2.88;;;;;;;9.18;76.29;101071.56;5032524;28;20037;-57
2023/01/29 08:53:32;;;;;;;10.38;2.58;;;;;;;9.17;76.26;101069.09;5033217;28;20049;-57
2023/01/29 08:55:58;;;;;;;9.55;2.40;;;;;;;9.22;75.98;101072.84;5033628;28;20033;-57
2023/01/29 08:58:24;;;;;;;11.82;2.67;;;;;;;9.26;75.71;101076.78;5015534;28;20041;-57
2023/01/29 09:00:50;;;;;;;10.30;2.10;;;;;;;9.28;75.01;101078.47;5029579;28;20395;-57
2023/01/29 09:03:16;;;;;;;8.75;2.33;;;;;;;9.37;74.38;101079.97;5033083;28;20441;-57
2023/01/29 09:05:43;;;;;;;11.60;2.80;;;;;;;9.33;74.07;101076.88;5033029;28;20132;-57
2023/01/29 09:08:09;;;;;;;9.13;2.58;;;;;;;9.32;74.21;101072.50;5033325;28;20037;-57
2023/01/29 09:10:36;;;;;;;9.15;2.40;;;;;;;9.20;74.79;101068.72;5033125;28;20060;-57
2023/01/29 09:13:02;;;;;;;12.00;3.05;;;;;;;9.19;74.49;101070.56;5032759;28;20029;-57
2023/01/29 09:15:29;;;;;;;12.25;2.70;;;;;;;9.19;73.70;101080.41;5029378;28;20029;-57
2023/01/29 09:17:55;;;;;;;7.50;2.80;;;;;;;9.34;72.80;101064.31;5030969;28;20493;-57
2023/01/29 09:20:21;;;;;;;8.23;1.80;;;;;;;9.04;73.63;101067.13;5033231;28;20498;-57
2023/01/29 09:22:49;;;;;;;10.68;2.78;;;;;;;9.06;73.67;101067.78;5030551;28;20066;-58
2023/01/29 09:25:15;;;;;;;10.60;2.58;;;;;;;8.98;73.29;101060.69;5027919;28;20017;-57
2023/01/29 09:27:41;;;;;;;7.50;2.22;;;;;;;9.04;73.48;101048.41;5030107;28;20021;-57
2023/01/29 09:30:08;;;;;;;10.93;2.03;;;;;;;9.07;72.94;101036.56;5030991;28;20026;-57
2023/01/29 09:32:35;;;;;;;14.63;2.28;;;;;;;8.91;73.38;101034.97;5030209;28;20036;-57
2023/01/29 09:35:01;;;;;;;9.50;2.38;;;;;;;9.00;73.03;101031.16;5030717;28;20030;-57
2023/01/29 09:37:27;;;;;;;6.50;2.03;;;;;;;9.02;72.92;101023.78;5032516;28;20490;-57
2023/01/29 09:39:53;;;;;;;9.55;1.98;;;;;;;9.06;72.00;101022.38;5030828;28;20037;-57
2023/01/29 09:42:40;;;;;;;7.95;1.90;;;;;;;8.95;72.77;101018.38;5030298;28;20026;-57
2023/01/29 09:45:20;;;;;;;8.10;2.08;;;;;;;8.79;73.17;101017.78;5031225;28;20078;-57
2023/01/29 09:47:47;;;;;;;7.07;2.17;;;;;;;8.86;72.94;101018.69;5030437;28;20029;-57
2023/01/29 09:50:22;;;;;;;8.65;2.42;;;;;;;8.77;72.96;101014.47;5030506;28;20104;-57
2023/01/29 09:53:01;;;;;;;6.47;2.10;;;;;;;8.55;73.07;101024.28;5030394;28;20029;-57
2023/01/29 09:55:29;;;;;;;6.57;2.08;;;;;;;8.71;72.73;101022.22;5030528;28;20041;-56
2023/01/29 09:57:59;;;;;;;13.45;2.28;;;;;;;8.53;72.96;101018.31;5031646;28;20148;-57
2023/01/29 10:00:49;;;;;;;12.55;2.05;;;;;;;8.34;73.61;101017.88;5029777;28;20049;-57
2023/01/29 10:03:26;;;;;;;7.72;2.08;;;;;;;8.28;73.48;101015.16;5030048;28;20033;-57
2023/01/29 10:06:08;;;;;;;9.15;1.75;;;;;;;8.29;73.40;101014.13;5030446;28;20041;-57
2023/01/29 10:08:43;;;;;;;10.95;2.03;;;;;;;8.07;74.17;101019.41;5032039;28;20064;-57
2023/01/29 10:11:21;;;;;;;5.82;2.03;;;;;;;8.03;74.65;101028.75;5030062;28;20124;-57
2023/01/29 10:14:22;;;;;;;7.22;2.60;;;;;;;7.96;75.98;101027.84;5011770;28;20065;-57
2023/01/29 10:17:22;;;;;;;10.48;2.50;;;;;;;8.13;76.72;101028.50;5023378;28;20033;-57
2023/01/29 10:20:37;;;;;;;7.88;2.80;;;;;;;8.25;77.03;101015.50;5030657;28;20041;-57
2023/01/29 10:23:12;;;;;;;7.43;2.42;;;;;;;8.33;76.76;101020.72;5011976;28;20030;-57
2023/01/29 10:25:41;;;;;;;9.57;2.50;;;;;;;8.31;76.65;101015.59;5021528;28;20029;-57
2023/01/29 10:28:30;;;;;;;7.47;2.28;;;;;;;8.39;76.22;101007.53;5031718;28;20648;-57
2023/01/29 10:31:37;;;;;;;11.43;2.50;;;;;;;8.28;76.05;101007.16;5031080;28;20030;-57
2023/01/29 10:34:18;;;;;;;6.72;2.30;;;;;;;8.54;73.99;101015.47;5028999;28;20036;-57
2023/01/29 10:36:47;;;;;;;5.35;1.83;;;;;;;8.33;74.00;101004.72;5013633;28;20026;-57
2023/01/29 10:39:21;;;;;;;7.95;1.83;;;;;;;8.30;72.89;100999.78;5031381;28;20030;-57
2023/01/29 10:42:09;;;;;;;5.37;1.63;;;;;;;8.19;73.06;101003.75;5031436;28;20100;-57
2023/01/29 10:44:47;;;;;;;8.15;1.75;;;;;;;8.24;72.05;101004.00;5031418;28;20511;-57
2023/01/29 10:47:31;;;;;;;7.38;1.52;;;;;;;8.25;71.27;101008.34;5031556;28;20036;-56
2023/01/29 10:50:09;;;;;;;6.47;1.23;;;;;;;8.31;70.33;101004.91;5031215;28;20379;-57
2023/01/29 10:52:48;;;;;;;4.85;1.48;;;;;;;8.24;70.11;100998.69;5031118;28;20036;-57
2023/01/29 10:55:36;;;;;;;5.05;1.38;;;;;;;8.16;70.54;100999.63;5031241;28;20105;-57
2023/01/29 10:58:30;;;;;;;5.22;1.40;;;;;;;8.13;70.98;100997.31;5030930;28;20029;-56
2023/01/29 11:00:57;;;;;;;6.32;1.63;;;;;;;8.11;70.98;100995.88;5031650;28;20791;-57
2023/01/29 11:03:28;;;;;;;4.25;1.23;;;;;;;8.11;71.13;100999.34;5031065;28;20487;-57
2023/01/29 11:06:10;;;;;;;9.77;1.48;;;;;;;7.93;71.95;100985.56;5031228;28;20049;-57
2023/01/29 11:08:48;;;;;;;6.43;1.20;;;;;;;7.86;72.25;100985.47;5031182;28;20030;-57
2023/01/29 11:11:17;;;;;;;5.32;1.15;;;;;;;7.84;72.48;100986.69;5030938;28;20030;-57
2023/01/29 11:13:59;;;;;;;2.38;0.90;;;;;;;7.99;71.72;100962.66;5030724;28;20014;-57
2023/01/29 11:16:29;;;;;;;6.90;1.40;;;;;;;8.00;71.49;100972.34;5030971;28;20040;-57
2023/01/29 11:18:58;;;;;;;4.72;1.25;;;;;;;7.82;72.04;100968.19;5030596;28;20053;-57
2023/01/29 11:21:26;;;;;;;4.88;1.40;;;;;;;7.70;72.50;100968.84;5029296;28;20029;-57
2023/01/29 11:24:15;;;;;;;3.88;1.13;;;;;;;7.70;72.28;100968.84;5029290;28;20026;-57
2023/01/29 11:26:43;;;;;;;4.85;1.33;;;;;;;7.81;72.09;100973.72;5024855;28;20495;-57
2023/01/29 11:29:28;;;;;;;4.05;1.40;;;;;;;7.83;71.82;100969.88;5030461;28;20479;-57
2023/01/29 11:31:54;;;;;;;3.85;1.00;;;;;;;7.81;71.79;100971.06;5023470;28;20503;-57
2023/01/29 11:34:32;;;;;;;4.82;1.40;;;;;;;7.62;72.37;100970.59;5014569;28;20022;-56
2023/01/29 11:37:03;;;;;;;5.47;1.02;;;;;;;7.75;72.09;100967.28;5020026;28;20444;-57
2023/01/29 11:39:31;;;;;;;5.35;1.00;;;;;;;7.67;72.77;100968.22;5028323;28;20040;-57
2023/01/29 11:42:02;;;;;;;2.83;0.93;;;;;;;7.79;72.15;100970.44;5030445;28;20057;-57
2023/01/29 11:44:40;;;;;;;4.80;1.20;;;;;;;7.53;73.41;100963.72;5025725;28;20076;-57
2023/01/29 11:47:16;;;;;;;3.00;1.17;;;;;;;7.66;72.86;100969.25;5014543;28;20543;-57
2023/01/29 11:49:46;;;;;;;7.03;1.05;;;;;;;7.74;72.38;100964.81;5021000;28;20025;-57
2023/01/29 11:52:14;;;;;;;3.97;0.90;;;;;;;7.58;73.23;100958.66;5034861;28;20112;-57
2023/01/29 11:55:01;;;;;;;2.53;0.90;;;;;;;7.66;73.12;100957.72;5034406;28;20025;-57
2023/01/29 11:57:33;;;;;;;4.20;1.13;;;;;;;7.70;72.75;100963.53;5034597;28;20022;-56
2023/01/29 12:00:05;;;;;;;7.35;1.40;;;;;;;7.76;72.61;100962.78;5034362;28;20171;-57
2023/01/29 12:02:36;;;;;;;2.78;1.10;;;;;;;7.66;72.84;100955.91;5033941;28;20033;-57
2023/01/29 12:05:17;;;;;;;3.33;1.10;;;;;;;7.80;72.41;100953.41;5033709;28;20025;-57
2023/01/29 12:07:47;;;;;;;6.20;1.02;;;;;;;7.87;71.74;100949.00;5034458;28;20037;-57
2023/01/29 12:10:46;;;;;;;5.38;1.33;;;;;;;7.81;71.81;100947.06;5034351;28;20026;-57
2023/01/29 12:13:14;;;;;;;3.80;0.90;;;;;;;7.85;71.20;100946.53;4980107;28;20484;-57
2023/01/29 12:15:43;;;;;;;5.78;0.98;;;;;;;7.79;71.31;100947.28;5033974;28;20035;-56